createdAt,value
2023-07-10T00:01:30.353Z,17.96
2023-07-10T00:03:57.202Z,17.97
2023-07-10T00:06:24.527Z,17.99
2023-07-10T00:08:51.178Z,18.00
2023-07-10T00:11:23.199Z,18.00
2023-07-10T00:13:49.978Z,18.00
2023-07-10T00:16:21.741Z,17.99
2023-07-10T00:18:49.690Z,17.99
2023-07-10T00:21:18.170Z,17.99
2023-07-10T00:23:45.646Z,18.01
2023-07-10T00:26:23.443Z,18.02
2023-07-10T00:28:56.253Z,18.04
2023-07-10T00:31:25.624Z,18.06
2023-07-10T00:33:53.480Z,18.06
2023-07-10T00:36:32.039Z,18.06
2023-07-10T00:39:21.049Z,18.06
2023-07-10T00:41:55.992Z,18.04
2023-07-10T00:44:31.639Z,18.02
2023-07-10T00:47:04.416Z,18.01
2023-07-10T00:49:53.585Z,17.99
2023-07-10T00:52:25.235Z,17.96
2023-07-10T00:54:55.171Z,17.92
2023-07-10T00:57:33.992Z,17.87
2023-07-10T01:00:14.827Z,17.83
2023-07-10T01:02:41.448Z,17.79
2023-07-10T01:05:09.071Z,17.76
2023-07-10T01:07:58.510Z,17.72
2023-07-10T01:10:25.454Z,17.69
2023-07-10T01:12:52.509Z,17.67
2023-07-10T01:15:19.251Z,17.66
2023-07-10T01:17:47.477Z,17.64
2023-07-10T01:20:34.193Z,17.62
2023-07-10T01:23:02.558Z,17.59
2023-07-10T01:25:34.462Z,17.58
2023-07-10T01:28:10.329Z,17.55
2023-07-10T01:30:40.377Z,17.51
2023-07-10T01:33:14.103Z,17.47
2023-07-10T01:35:43.564Z,17.44
2023-07-10T01:38:14.124Z,17.37
2023-07-10T01:40:43.884Z,17.29
2023-07-10T01:43:10.836Z,17.21
2023-07-10T01:45:46.725Z,17.12
2023-07-10T01:48:14.554Z,17.04
2023-07-10T01:50:44.669Z,16.97
2023-07-10T01:53:11.503Z,16.91
2023-07-10T01:55:45.317Z,16.85
2023-07-10T01:58:13.392Z,16.77
2023-07-10T02:00:41.569Z,16.70
2023-07-10T02:03:08.276Z,16.66
2023-07-10T02:05:34.939Z,16.61
2023-07-10T02:08:01.639Z,16.54
2023-07-10T02:10:44.279Z,16.51
2023-07-10T02:13:13.424Z,16.48
2023-07-10T02:15:40.838Z,16.49
2023-07-10T02:18:07.435Z,16.52
2023-07-10T02:20:34.104Z,16.54
2023-07-10T02:23:00.795Z,16.56
2023-07-10T02:25:27.941Z,16.57
2023-07-10T02:27:54.482Z,16.59
2023-07-10T02:30:21.095Z,16.59
2023-07-10T02:32:47.689Z,16.60
2023-07-10T02:35:14.289Z,16.59
2023-07-10T02:37:41.090Z,16.58
2023-07-10T02:40:08.177Z,16.59
2023-07-10T02:42:34.891Z,16.59
2023-07-10T02:45:02.877Z,16.61
2023-07-10T02:47:29.489Z,16.63
2023-07-10T02:49:56.017Z,16.65
2023-07-10T02:52:22.564Z,16.65
2023-07-10T02:54:49.128Z,16.65
2023-07-10T02:57:15.659Z,16.63
2023-07-10T02:59:42.362Z,16.58
2023-07-10T03:02:09.000Z,16.53
2023-07-10T03:04:35.610Z,16.46
2023-07-10T03:07:04.159Z,16.38
2023-07-10T03:09:31.004Z,16.33
2023-07-10T03:11:59.552Z,16.32
2023-07-10T03:14:26.123Z,16.32
2023-07-10T03:16:53.535Z,16.33
2023-07-10T03:19:20.069Z,16.35
2023-07-10T03:21:46.749Z,16.37
2023-07-10T03:24:13.385Z,16.40
2023-07-10T03:26:40.063Z,16.40
2023-07-10T03:29:14.306Z,16.37
2023-07-10T03:31:41.324Z,16.33
2023-07-10T03:34:08.467Z,16.27
2023-07-10T03:36:35.025Z,16.21
2023-07-10T03:39:01.531Z,16.16
2023-07-10T03:41:28.093Z,16.46
2023-07-10T03:43:55.647Z,18.07
2023-07-10T03:46:22.756Z,19.61
2023-07-10T03:48:49.517Z,20.30
2023-07-10T03:51:16.826Z,19.58
2023-07-10T03:53:43.522Z,18.76
2023-07-10T03:56:10.356Z,18.18
2023-07-10T03:58:41.387Z,17.84
2023-07-10T04:01:08.751Z,17.58
2023-07-10T04:03:37.169Z,17.37
2023-07-10T04:06:05.242Z,17.17
2023-07-10T04:08:34.734Z,17.01
2023-07-10T04:11:22.746Z,16.89
2023-07-10T04:13:51.302Z,17.23
2023-07-10T04:16:19.177Z,18.88
2023-07-10T04:18:47.827Z,20.30
2023-07-10T04:21:18.321Z,20.87
2023-07-10T04:23:45.631Z,20.11
2023-07-10T04:26:20.209Z,19.33
2023-07-10T04:28:48.666Z,18.80
2023-07-10T04:31:17.542Z,18.39
2023-07-10T04:33:45.021Z,18.02
2023-07-10T04:36:11.680Z,17.78
2023-07-10T04:38:38.297Z,17.64
2023-07-10T04:41:07.499Z,17.89
2023-07-10T04:43:35.375Z,19.52
2023-07-10T04:46:05.433Z,20.99
2023-07-10T04:48:33.530Z,21.64
2023-07-10T04:51:03.615Z,20.97
2023-07-10T04:53:32.296Z,20.23
2023-07-10T04:56:01.558Z,19.81
2023-07-10T04:58:29.609Z,19.60
2023-07-10T05:01:00.976Z,19.40
2023-07-10T05:03:27.647Z,19.24
2023-07-10T05:05:55.937Z,19.14
2023-07-10T05:08:26.313Z,19.06
2023-07-10T05:10:54.970Z,19.01
2023-07-10T05:13:25.889Z,18.97
2023-07-10T05:15:54.115Z,18.98
2023-07-10T05:18:20.794Z,19.03
2023-07-10T05:20:49.171Z,19.09
2023-07-10T05:23:17.183Z,19.14
2023-07-10T05:25:58.386Z,19.21
2023-07-10T05:28:26.357Z,19.26
2023-07-10T05:30:55.021Z,19.34
2023-07-10T05:33:21.727Z,19.41
2023-07-10T05:35:53.506Z,19.49
2023-07-10T05:38:23.748Z,19.57
2023-07-10T05:40:50.344Z,19.67
2023-07-10T05:43:16.955Z,19.79
2023-07-10T05:45:43.678Z,19.95
2023-07-10T05:48:11.139Z,20.11
2023-07-10T05:50:37.889Z,20.30
2023-07-10T05:53:05.408Z,20.49
2023-07-10T05:55:32.193Z,20.71
2023-07-10T05:57:58.802Z,20.90
2023-07-10T06:00:26.428Z,21.09
2023-07-10T06:02:53.216Z,21.23
2023-07-10T06:05:19.819Z,21.39
2023-07-10T06:07:46.608Z,21.57
2023-07-10T06:10:13.226Z,21.72
2023-07-10T06:12:41.662Z,21.89
2023-07-10T06:15:09.894Z,22.09
2023-07-10T06:17:36.478Z,22.29
2023-07-10T06:20:03.578Z,22.49
2023-07-10T06:22:30.192Z,22.59
2023-07-10T06:24:56.763Z,22.68
2023-07-10T06:27:23.429Z,22.85
2023-07-10T06:29:52.234Z,23.08
2023-07-10T06:32:20.394Z,23.32
2023-07-10T06:34:47.077Z,23.55
2023-07-10T06:37:14.391Z,23.77
2023-07-10T06:39:41.259Z,23.99
2023-07-10T06:42:08.068Z,24.17
2023-07-10T06:44:34.742Z,24.25
2023-07-10T06:47:01.317Z,24.26
2023-07-10T06:49:27.985Z,24.34
2023-07-10T06:51:54.571Z,24.44
2023-07-10T06:54:21.147Z,24.53
2023-07-10T06:56:49.070Z,24.62
2023-07-10T06:59:21.998Z,24.74
2023-07-10T07:01:49.081Z,24.86
2023-07-10T07:04:15.716Z,24.95
2023-07-10T07:06:42.246Z,25.03
2023-07-10T07:09:08.828Z,25.12
2023-07-10T07:11:35.423Z,25.17
2023-07-10T07:14:02.016Z,25.24
2023-07-10T07:16:28.589Z,25.31
2023-07-10T07:19:02.841Z,25.39
2023-07-10T07:21:37.773Z,25.48
2023-07-10T07:24:04.936Z,25.59
2023-07-10T07:26:31.742Z,25.70
2023-07-10T07:28:58.351Z,25.81
2023-07-10T07:31:24.981Z,25.91
2023-07-10T07:33:51.759Z,26.03
2023-07-10T07:36:18.348Z,26.16
2023-07-10T07:38:44.967Z,26.31
2023-07-10T07:41:11.967Z,26.43
2023-07-10T07:43:38.541Z,26.50
2023-07-10T07:46:05.374Z,26.58
2023-07-10T07:48:32.272Z,26.71
2023-07-10T07:51:02.463Z,26.85
2023-07-10T07:53:32.707Z,26.96
2023-07-10T07:55:59.554Z,27.10
2023-07-10T07:58:26.406Z,27.27
2023-07-10T08:00:53.030Z,27.40
2023-07-10T08:03:19.948Z,27.55
2023-07-10T08:05:46.819Z,27.68
2023-07-10T08:08:13.570Z,27.83
2023-07-10T08:10:42.809Z,27.90
2023-07-10T08:13:11.515Z,27.92
2023-07-10T08:15:39.009Z,28.01
2023-07-10T08:18:06.287Z,28.11
2023-07-10T08:20:33.110Z,28.14
2023-07-10T08:23:00.001Z,28.21
2023-07-10T08:25:26.598Z,28.30
2023-07-10T08:27:53.738Z,28.34
2023-07-10T08:30:20.896Z,28.32
2023-07-10T08:32:47.495Z,28.49
2023-07-10T08:35:14.127Z,28.69
2023-07-10T08:37:40.710Z,28.82
2023-07-10T08:40:15.204Z,28.94
2023-07-10T08:42:42.293Z,29.04
2023-07-10T08:45:17.285Z,29.04
2023-07-10T08:47:50.981Z,28.98
2023-07-10T08:50:29.645Z,28.92
2023-07-10T08:52:59.321Z,28.89
2023-07-10T08:55:30.275Z,28.96
2023-07-10T08:58:01.359Z,29.14
2023-07-10T09:00:36.605Z,29.28
2023-07-10T09:03:33.793Z,29.31
2023-07-10T09:06:04.381Z,29.26
2023-07-10T09:08:33.411Z,29.30
2023-07-10T09:11:03.771Z,29.45
2023-07-10T09:13:46.882Z,29.57
2023-07-10T09:16:19.721Z,29.73
2023-07-10T09:18:53.104Z,29.95
2023-07-10T09:21:22.130Z,30.18
2023-07-10T09:23:49.329Z,30.44
2023-07-10T09:26:22.738Z,30.63
2023-07-10T09:29:28.105Z,30.80
2023-07-10T09:32:13.707Z,31.07
2023-07-10T09:34:45.725Z,31.26
2023-07-10T09:37:16.840Z,31.39
2023-07-10T09:39:43.484Z,31.51
2023-07-10T09:42:16.584Z,31.55
2023-07-10T09:45:01.484Z,31.52
2023-07-10T09:47:39.925Z,31.61
2023-07-10T09:50:14.910Z,31.85
2023-07-10T09:52:42.941Z,32.01
2023-07-10T09:55:13.840Z,31.98
2023-07-10T09:58:03.335Z,31.75
2023-07-10T10:00:33.515Z,31.42
2023-07-10T10:03:09.320Z,31.13
2023-07-10T10:05:41.629Z,30.91
2023-07-10T10:08:20.495Z,30.74
2023-07-10T10:11:09.595Z,30.72
2023-07-10T10:13:44.118Z,30.93
2023-07-10T10:16:17.046Z,31.04
2023-07-10T10:18:50.305Z,31.25
2023-07-10T10:21:20.859Z,31.52
2023-07-10T10:23:50.453Z,31.80
2023-07-10T10:26:43.551Z,31.93
2023-07-10T10:29:31.051Z,31.96
2023-07-10T10:32:06.480Z,31.81
2023-07-10T10:35:11.890Z,31.69
2023-07-10T10:37:51.244Z,31.78
2023-07-10T10:40:30.115Z,31.95
2023-07-10T10:43:12.134Z,32.07
2023-07-10T10:45:47.510Z,31.93
2023-07-10T10:48:42.161Z,31.68
2023-07-10T10:51:14.571Z,31.64
2023-07-10T10:53:47.783Z,31.50
2023-07-10T10:56:37.057Z,31.28
2023-07-10T10:59:09.521Z,30.95
2023-07-10T11:01:49.150Z,30.67
2023-07-10T11:04:21.361Z,30.57
2023-07-10T11:07:06.719Z,30.61
2023-07-10T11:09:39.816Z,30.84
2023-07-10T11:12:15.866Z,30.86
2023-07-10T11:14:44.971Z,30.67
2023-07-10T11:17:15.176Z,30.45
2023-07-10T11:19:42.539Z,30.31
2023-07-10T11:22:25.666Z,30.24
2023-07-10T11:24:53.142Z,30.21
2023-07-10T11:27:28.152Z,30.24
2023-07-10T11:30:08.552Z,30.28
2023-07-10T11:32:55.874Z,30.35
2023-07-10T11:35:24.121Z,30.55
2023-07-10T11:37:50.713Z,30.67
2023-07-10T11:40:29.388Z,30.76
2023-07-10T11:43:00.935Z,30.75
2023-07-10T11:45:45.170Z,30.72
2023-07-10T11:48:37.786Z,30.70
2023-07-10T11:51:04.405Z,30.78
2023-07-10T11:53:31.072Z,30.84
2023-07-10T11:56:07.588Z,30.84
2023-07-10T11:58:36.795Z,30.70
2023-07-10T12:01:19.145Z,30.60
2023-07-10T12:03:45.986Z,30.50
2023-07-10T12:06:18.127Z,30.43
2023-07-10T12:08:46.584Z,30.41
2023-07-10T12:11:28.203Z,30.33
2023-07-10T12:13:54.804Z,30.24
2023-07-10T12:16:33.153Z,30.07
2023-07-10T12:19:17.557Z,29.90
2023-07-10T12:21:45.417Z,29.87
2023-07-10T12:24:16.065Z,29.91
2023-07-10T12:27:41.274Z,30.03
2023-07-10T12:29:29.493Z,30.15
2023-07-10T12:31:56.712Z,30.27
2023-07-10T12:34:26.131Z,30.35
2023-07-10T12:36:59.066Z,30.29
2023-07-10T12:39:26.368Z,30.11
2023-07-10T12:41:55.761Z,29.85
2023-07-10T12:44:25.212Z,29.65
2023-07-10T12:47:14.309Z,29.53
2023-07-10T12:49:49.675Z,29.40
2023-07-10T12:52:17.145Z,29.25
2023-07-10T12:54:52.256Z,29.08
2023-07-10T12:57:30.911Z,28.90
2023-07-10T13:00:11.012Z,28.73
2023-07-10T13:02:51.393Z,28.56
2023-07-10T13:05:31.092Z,28.43
2023-07-10T13:07:58.818Z,28.31
2023-07-10T13:10:39.792Z,28.20
2023-07-10T13:13:15.662Z,28.08
2023-07-10T13:15:42.636Z,27.98
2023-07-10T13:18:36.182Z,27.97
2023-07-10T13:21:06.265Z,28.03
2023-07-10T13:23:32.852Z,28.10
2023-07-10T13:25:59.492Z,28.16
2023-07-10T13:28:47.192Z,28.25
2023-07-10T13:31:17.661Z,28.38
2023-07-10T13:33:45.005Z,28.59
2023-07-10T13:36:21.297Z,28.83
2023-07-10T13:38:48.476Z,29.05
2023-07-10T13:41:17.383Z,29.16
2023-07-10T13:43:44.402Z,29.26
2023-07-10T13:46:31.715Z,29.53
2023-07-10T13:49:06.077Z,29.92
2023-07-10T13:51:34.520Z,30.21
2023-07-10T13:54:02.004Z,30.46
2023-07-10T13:56:39.117Z,30.58
2023-07-10T13:59:06.634Z,30.76
2023-07-10T14:01:33.766Z,30.83
2023-07-10T14:04:00.809Z,30.89
2023-07-10T14:06:33.813Z,30.89
2023-07-10T14:09:13.074Z,30.85
2023-07-10T14:11:41.954Z,31.05
2023-07-10T14:14:19.114Z,31.31
2023-07-10T14:16:47.161Z,31.65
2023-07-10T14:19:18.885Z,32.02
2023-07-10T14:21:46.272Z,32.14
2023-07-10T14:24:12.904Z,32.07
2023-07-10T14:26:39.595Z,32.23
2023-07-10T14:29:06.190Z,32.48
2023-07-10T14:31:32.781Z,32.63
2023-07-10T14:33:59.371Z,32.57
2023-07-10T14:36:27.812Z,32.27
2023-07-10T14:38:54.484Z,32.05
2023-07-10T14:41:24.375Z,31.85
2023-07-10T14:43:52.213Z,31.54
2023-07-10T14:46:36.673Z,31.10
2023-07-10T14:49:24.247Z,30.55
2023-07-10T14:51:51.074Z,30.16
2023-07-10T14:54:17.706Z,29.94
2023-07-10T14:56:44.576Z,29.71
2023-07-10T14:59:12.969Z,29.47
2023-07-10T15:01:39.668Z,29.22
2023-07-10T15:04:06.342Z,28.96
2023-07-10T15:06:38.554Z,28.65
2023-07-10T15:09:06.788Z,28.40
2023-07-10T15:11:33.437Z,28.23
2023-07-10T15:14:00.020Z,28.08
2023-07-10T15:16:27.419Z,27.97
2023-07-10T15:18:54.003Z,27.87
2023-07-10T15:21:25.398Z,27.81
2023-07-10T15:23:52.000Z,27.77
2023-07-10T15:26:18.576Z,27.77
2023-07-10T15:28:45.150Z,27.79
2023-07-10T15:31:13.694Z,27.82
2023-07-10T15:33:42.676Z,27.85
2023-07-10T15:36:17.744Z,27.92
2023-07-10T15:38:44.968Z,28.02
2023-07-10T15:41:23.651Z,28.10
2023-07-10T15:43:51.404Z,28.18
2023-07-10T15:46:18.284Z,28.30
2023-07-10T15:48:45.388Z,28.43
2023-07-10T15:51:22.089Z,28.50
2023-07-10T15:53:48.801Z,28.50
2023-07-10T15:56:15.534Z,28.43
2023-07-10T15:58:42.621Z,28.37
2023-07-10T16:01:16.199Z,28.28
2023-07-10T16:03:43.013Z,28.15
2023-07-10T16:06:09.590Z,28.04
2023-07-10T16:08:38.519Z,27.91
2023-07-10T16:11:17.518Z,27.79
2023-07-10T16:13:45.766Z,27.64
2023-07-10T16:16:12.443Z,27.43
2023-07-10T16:18:39.085Z,27.20
2023-07-10T16:21:34.893Z,26.90
2023-07-10T16:24:01.772Z,26.61
2023-07-10T16:26:29.703Z,26.38
2023-07-10T16:28:56.335Z,26.13
2023-07-10T16:31:27.933Z,25.90
2023-07-10T16:33:54.705Z,25.73
2023-07-10T16:36:21.318Z,25.61
2023-07-10T16:38:48.293Z,25.54
2023-07-10T16:41:17.555Z,25.48
2023-07-10T16:43:44.717Z,25.41
2023-07-10T16:46:12.626Z,25.30
2023-07-10T16:48:40.729Z,25.21
2023-07-10T16:51:22.623Z,25.08
2023-07-10T16:53:49.304Z,24.94
2023-07-10T16:56:18.566Z,24.82
2023-07-10T16:58:45.685Z,24.73
2023-07-10T17:01:27.213Z,24.65
2023-07-10T17:03:55.720Z,24.54
2023-07-10T17:06:27.207Z,24.46
2023-07-10T17:08:54.759Z,24.36
2023-07-10T17:11:34.020Z,24.24
2023-07-10T17:14:01.649Z,24.13
2023-07-10T17:16:28.718Z,24.03
2023-07-10T17:18:55.399Z,23.93
2023-07-10T17:21:22.292Z,23.83
2023-07-10T17:23:48.860Z,23.74
2023-07-10T17:26:17.853Z,23.68
2023-07-10T17:28:46.604Z,23.62
2023-07-10T17:31:21.229Z,23.61
2023-07-10T17:33:49.847Z,23.61
2023-07-10T17:36:17.201Z,23.62
2023-07-10T17:38:43.857Z,23.68
2023-07-10T17:41:16.292Z,23.75
2023-07-10T17:43:43.621Z,23.77
2023-07-10T17:46:11.216Z,23.76
2023-07-10T17:48:38.545Z,23.72
2023-07-10T17:51:29.933Z,23.76
2023-07-10T17:53:58.257Z,24.01
2023-07-10T17:56:25.684Z,24.22
2023-07-10T17:58:56.517Z,24.31
2023-07-10T18:01:27.617Z,24.35
2023-07-10T18:03:58.826Z,24.34
2023-07-10T18:06:25.802Z,24.36
2023-07-10T18:10:05.156Z,24.29
2023-07-10T18:13:37.416Z,24.13
2023-07-10T18:16:06.793Z,23.97
2023-07-10T18:18:34.656Z,23.81
2023-07-10T18:21:15.512Z,23.66
2023-07-10T18:23:42.507Z,23.48
2023-07-10T18:26:09.906Z,23.32
2023-07-10T18:28:37.879Z,23.15
2023-07-10T18:31:16.051Z,22.99
2023-07-10T18:33:42.720Z,22.85
2023-07-10T18:36:13.274Z,22.72
2023-07-10T18:38:40.330Z,22.59
2023-07-10T18:41:27.755Z,22.46
2023-07-10T18:43:58.660Z,22.32
2023-07-10T18:46:27.549Z,22.21
2023-07-10T18:48:55.650Z,22.12
2023-07-10T18:51:35.066Z,22.02
2023-07-10T18:54:05.193Z,21.92
2023-07-10T18:56:33.395Z,22.11
2023-07-10T18:59:00.099Z,23.50
2023-07-10T19:01:30.260Z,24.50
2023-07-10T19:03:57.740Z,23.96
2023-07-10T19:06:40.589Z,23.26
2023-07-10T19:09:20.359Z,22.74
2023-07-10T19:11:47.965Z,22.38
2023-07-10T19:14:16.698Z,22.13
2023-07-10T19:16:44.234Z,21.85
2023-07-10T19:19:33.623Z,21.87
2023-07-10T19:22:00.553Z,23.28
2023-07-10T19:24:28.326Z,23.79
2023-07-10T19:26:55.225Z,23.08
2023-07-10T19:29:21.882Z,22.31
2023-07-10T19:31:55.957Z,21.73
2023-07-10T19:34:23.397Z,21.72
2023-07-10T19:38:10.792Z,23.15
2023-07-10T19:42:18.082Z,23.31
2023-07-10T19:45:25.244Z,22.08
2023-07-10T19:47:51.952Z,21.56
2023-07-10T19:50:20.293Z,21.58
2023-07-10T19:52:46.900Z,22.85
2023-07-10T19:55:15.332Z,23.83
2023-07-10T19:57:42.959Z,24.05
2023-07-10T20:00:28.096Z,23.23
2023-07-10T20:02:54.898Z,22.31
2023-07-10T20:05:21.721Z,21.72
2023-07-10T20:07:48.692Z,22.32
2023-07-10T20:10:20.294Z,23.49
2023-07-10T20:12:49.415Z,24.18
2023-07-10T20:15:16.248Z,24.59
2023-07-10T20:17:46.007Z,24.57
2023-07-10T20:20:17.890Z,23.55
2023-07-10T20:22:44.542Z,22.56
2023-07-10T20:25:11.158Z,21.89
2023-07-10T20:27:38.144Z,21.78
2023-07-10T20:30:08.563Z,22.92
2023-07-10T20:32:35.242Z,23.81
2023-07-10T20:35:03.107Z,24.04
2023-07-10T20:37:29.742Z,23.15
2023-07-10T20:39:56.383Z,22.24
2023-07-10T20:42:23.062Z,21.91
2023-07-10T20:44:50.244Z,22.94
2023-07-10T20:47:17.364Z,23.85
2023-07-10T20:49:45.787Z,24.05
2023-07-10T20:52:18.618Z,23.20
2023-07-10T20:54:47.608Z,22.30
2023-07-10T20:57:14.733Z,21.71
2023-07-10T20:59:42.194Z,21.62
2023-07-10T21:02:19.322Z,22.81
2023-07-10T21:04:46.220Z,23.84
2023-07-10T21:07:16.702Z,24.13
2023-07-10T21:09:52.674Z,23.31
2023-07-10T21:12:20.342Z,22.34
2023-07-10T21:14:48.271Z,21.97
2023-07-10T21:17:20.264Z,22.87
2023-07-10T21:19:46.898Z,23.90
2023-07-10T21:22:15.493Z,24.22
2023-07-10T21:24:42.537Z,23.41
2023-07-10T21:27:12.141Z,22.57
2023-07-10T21:29:38.751Z,22.01
2023-07-10T21:32:11.636Z,21.96
2023-07-10T21:34:38.204Z,23.23
2023-07-10T21:37:04.751Z,24.33
2023-07-10T21:39:31.506Z,24.74
2023-07-10T21:41:58.088Z,23.79
2023-07-10T21:44:25.039Z,22.96
2023-07-10T21:46:51.711Z,22.66
2023-07-10T21:49:18.480Z,23.83
2023-07-10T21:51:45.285Z,24.57
2023-07-10T21:54:13.193Z,23.80
2023-07-10T21:56:43.671Z,22.96
2023-07-10T21:59:20.430Z,22.76
2023-07-10T22:01:47.660Z,24.06
2023-07-10T22:04:14.464Z,24.91
2023-07-10T22:06:43.930Z,24.79
2023-07-10T22:09:12.384Z,23.84
2023-07-10T22:11:41.433Z,23.04
2023-07-10T22:14:16.233Z,23.61
2023-07-10T22:16:43.807Z,24.69
2023-07-10T22:19:12.149Z,25.00
2023-07-10T22:21:41.660Z,24.18
2023-07-10T22:24:19.080Z,23.44
2023-07-10T22:26:45.672Z,23.02
2023-07-10T22:29:12.330Z,23.97
2023-07-10T22:31:40.335Z,24.93
2023-07-10T22:34:07.028Z,25.20
2023-07-10T22:36:33.750Z,24.29
2023-07-10T22:39:00.281Z,23.24
2023-07-10T22:41:31.175Z,23.25
2023-07-10T22:44:11.506Z,24.33
2023-07-10T22:46:39.891Z,25.14
2023-07-10T22:49:09.485Z,25.28
2023-07-10T22:51:36.428Z,24.32
2023-07-10T22:54:04.393Z,23.32
2023-07-10T22:56:34.550Z,23.01
2023-07-10T22:59:01.345Z,24.27
2023-07-10T23:01:28.450Z,25.16
2023-07-10T23:03:55.729Z,25.19
2023-07-10T23:06:25.968Z,24.11
2023-07-10T23:08:52.767Z,23.46
2023-07-10T23:11:19.294Z,24.55
2023-07-10T23:13:46.249Z,25.23
2023-07-10T23:16:15.839Z,25.27
2023-07-10T23:18:59.405Z,24.07
2023-07-10T23:21:28.356Z,23.45
2023-07-10T23:23:55.170Z,24.31
2023-07-10T23:26:24.607Z,25.19
2023-07-10T23:28:51.200Z,25.24
2023-07-10T23:31:20.648Z,24.09
2023-07-10T23:33:49.184Z,23.54
2023-07-10T23:36:17.571Z,24.35
2023-07-10T23:38:44.511Z,25.17
2023-07-10T23:41:12.176Z,25.36
2023-07-10T23:43:39.862Z,24.33
2023-07-10T23:46:07.723Z,23.43
2023-07-10T23:48:34.639Z,24.15
2023-07-10T23:51:01.234Z,24.81
2023-07-10T23:53:30.453Z,25.41
2023-07-10T23:55:57.551Z,25.36
2023-07-10T23:58:24.097Z,23.98
